Time;durP1;ratioP1;P1;durP2;ratioP2;P2;SDS_P1;SDS_P2;PMS_P1;PMS_P2;Temp;Humidity;BMP_temperature;BMP_pressure;BME280_temperature;BME280_humidity;BME280_pressure;Samples;Min_cycle;Max_cycle;Signal;HPM_P1;HPM_P2
2023/04/22 00:00:39;;;;;;;11.10;3.40;;;;;;;42.01;34.37;100627.44;6181492;23;20443;-76
2023/04/22 00:03:07;;;;;;;9.13;3.57;;;;;;;41.93;33.62;100631.06;6182390;23;20972;-76
2023/04/22 00:05:33;;;;;;;9.67;2.47;;;;;;;41.92;33.90;100626.75;6182291;23;20406;-76
2023/04/22 00:07:59;;;;;;;10.50;2.50;;;;;;;42.05;33.79;100625.59;6181375;23;20424;-76
2023/04/22 00:10:26;;;;;;;10.90;3.83;;;;;;;41.97;33.82;100621.06;6182433;23;20699;-77
2023/04/22 00:12:52;;;;;;;9.17;2.87;;;;;;;41.91;33.62;100608.81;6183359;23;20715;-76
2023/04/22 00:15:20;;;;;;;9.30;3.40;;;;;;;42.00;34.10;100612.22;6184226;23;20919;-76
2023/04/22 00:17:47;;;;;;;10.00;2.70;;;;;;;41.96;34.41;100612.09;6186169;23;20352;-78
2023/04/22 00:20:14;;;;;;;14.30;3.03;;;;;;;41.96;34.43;100605.88;6184254;23;20829;-77
2023/04/22 00:22:40;;;;;;;26.13;3.80;;;;;;;41.93;33.92;100606.53;6183303;23;20849;-76
2023/04/22 00:25:06;;;;;;;9.90;3.10;;;;;;;41.83;34.22;100607.78;6185743;23;20813;-77
2023/04/22 00:27:32;;;;;;;12.70;3.70;;;;;;;41.82;34.67;100609.72;6181811;23;20511;-76
2023/04/22 00:29:58;;;;;;;12.80;2.90;;;;;;;41.88;34.75;100609.50;6184533;23;20411;-78
2023/04/22 00:32:25;;;;;;;12.57;5.07;;;;;;;41.82;34.37;100601.56;6182683;23;20380;-78
2023/04/22 00:34:51;;;;;;;8.37;2.93;;;;;;;42.02;34.20;100590.88;6183641;23;20167;-77
2023/04/22 00:37:17;;;;;;;10.30;2.83;;;;;;;41.86;34.87;100590.75;6182524;23;20424;-77
2023/04/22 00:39:43;;;;;;;10.10;3.77;;;;;;;42.00;34.67;100601.34;6184215;23;20384;-78
2023/04/22 00:42:09;;;;;;;17.83;7.60;;;;;;;42.08;35.08;100603.13;6184257;23;20437;-78
2023/04/22 00:44:35;;;;;;;10.50;3.70;;;;;;;41.89;34.98;100611.09;6183068;23;20732;-78
2023/04/22 00:47:02;;;;;;;13.60;3.90;;;;;;;42.00;34.46;100612.22;6183573;23;20427;-78
2023/04/22 00:49:28;;;;;;;14.07;4.07;;;;;;;42.02;34.61;100608.03;6184311;23;20376;-78
2023/04/22 00:51:54;;;;;;;15.97;4.40;;;;;;;41.88;35.11;100606.78;6182250;23;20411;-77
2023/04/22 00:54:20;;;;;;;17.33;3.83;;;;;;;41.90;34.88;100609.94;6182490;23;20883;-77
2023/04/22 00:56:46;;;;;;;10.90;4.97;;;;;;;42.04;34.66;100600.28;6183280;23;20149;-78
2023/04/22 00:59:12;;;;;;;11.70;4.73;;;;;;;42.04;35.20;100611.19;6183580;23;20397;-78
2023/04/22 01:01:38;;;;;;;9.10;2.40;;;;;;;41.99;34.70;100599.72;6184107;23;20915;-77
2023/04/22 01:04:05;;;;;;;10.47;3.10;;;;;;;42.14;34.77;100601.78;6183568;23;20819;-77
2023/04/22 01:06:33;;;;;;;7.60;2.20;;;;;;;42.05;35.07;100595.63;6183771;23;20439;-78
2023/04/22 01:08:59;;;;;;;12.20;4.00;;;;;;;42.08;34.87;100593.03;6183840;23;20792;-78
2023/04/22 01:11:25;;;;;;;10.07;3.03;;;;;;;41.85;34.37;100583.72;6183353;23;20834;-78
2023/04/22 01:13:52;;;;;;;9.03;3.30;;;;;;;41.87;34.64;100592.38;6183834;23;20723;-77
2023/04/22 01:16:18;;;;;;;11.17;3.57;;;;;;;42.04;34.47;100594.03;6183839;23;20491;-77
2023/04/22 01:18:44;;;;;;;14.60;5.80;;;;;;;42.08;35.48;100589.50;6183750;23;20411;-78
2023/04/22 01:21:11;;;;;;;14.43;7.37;;;;;;;42.12;35.67;100582.25;6184042;23;20411;-78
2023/04/22 01:23:38;;;;;;;10.70;3.80;;;;;;;42.02;35.27;100582.69;6183253;23;20741;-78
2023/04/22 01:26:05;;;;;;;12.23;3.97;;;;;;;42.22;35.16;100589.97;6183690;23;20369;-76
2023/04/22 01:28:31;;;;;;;11.30;3.97;;;;;;;41.91;35.47;100587.00;6183427;23;20435;-77
2023/04/22 01:30:58;;;;;;;12.93;3.90;;;;;;;42.01;35.84;100581.91;6183809;23;20384;-76
2023/04/22 01:33:24;;;;;;;9.10;3.30;;;;;;;41.94;35.65;100580.91;6183333;23;20408;-76
2023/04/22 01:35:50;;;;;;;10.13;3.87;;;;;;;42.01;35.50;100584.63;6183657;23;20476;-76
2023/04/22 01:38:17;;;;;;;8.87;3.77;;;;;;;41.88;35.76;100587.72;6183707;23;20380;-76
2023/04/22 01:40:43;;;;;;;13.43;5.73;;;;;;;41.95;35.79;100588.72;6183290;23;20388;-77
2023/04/22 01:43:08;;;;;;;13.03;4.87;;;;;;;42.16;35.45;100588.63;6179442;23;20394;-78
2023/04/22 01:45:34;;;;;;;14.90;3.83;;;;;;;41.96;35.78;100584.06;6181402;23;20157;-77
2023/04/22 01:48:00;;;;;;;13.40;3.70;;;;;;;41.88;35.87;100584.97;6182200;23;20568;-77
2023/04/22 01:50:26;;;;;;;14.00;3.40;;;;;;;41.84;35.50;100580.19;6182490;23;20395;-79
2023/04/22 01:52:52;;;;;;;12.50;4.30;;;;;;;41.99;35.24;100594.28;6181471;23;20384;-79
2023/04/22 01:55:18;;;;;;;13.40;4.97;;;;;;;41.86;35.61;100591.53;6182003;23;20478;-76
2023/04/22 01:57:44;;;;;;;10.43;5.73;;;;;;;41.98;35.27;100598.13;6183385;23;20731;-76
2023/04/22 02:00:11;;;;;;;20.77;5.90;;;;;;;41.89;35.09;100587.34;6183290;23;20459;-76
2023/04/22 02:02:37;;;;;;;11.50;3.93;;;;;;;41.93;35.59;100596.44;6183121;23;20386;-77
2023/04/22 02:05:05;;;;;;;11.87;5.17;;;;;;;41.92;35.35;100583.94;6183263;23;20468;-77
2023/04/22 02:07:31;;;;;;;14.33;3.80;;;;;;;41.75;35.60;100579.53;6182372;23;20420;-77
2023/04/22 02:09:57;;;;;;;18.37;4.17;;;;;;;41.80;36.03;100575.75;6183393;23;20404;-76
2023/04/22 02:12:23;;;;;;;12.73;4.40;;;;;;;41.97;35.15;100575.53;6182475;23;20250;-76
2023/04/22 02:14:49;;;;;;;8.90;3.83;;;;;;;41.86;35.45;100568.97;6182905;23;20210;-77
2023/04/22 02:17:16;;;;;;;13.50;4.40;;;;;;;41.82;35.55;100573.50;6182849;23;20244;-77
2023/04/22 02:19:42;;;;;;;9.30;2.70;;;;;;;41.87;35.63;100576.03;6183410;23;20372;-76
2023/04/22 02:22:08;;;;;;;11.77;4.20;;;;;;;41.78;35.97;100567.94;6183307;23;20464;-76
2023/04/22 02:24:34;;;;;;;13.43;5.90;;;;;;;41.72;36.00;100558.38;6183285;23;20375;-77
2023/04/22 02:27:00;;;;;;;14.90;3.57;;;;;;;41.83;35.84;100565.00;6182586;23;20420;-76
2023/04/22 02:29:26;;;;;;;16.53;5.20;;;;;;;41.83;35.90;100564.22;6183135;23;20464;-76
2023/04/22 02:31:52;;;;;;;15.10;5.33;;;;;;;41.89;35.86;100556.59;6183429;23;20380;-76
2023/04/22 02:34:18;;;;;;;13.30;3.97;;;;;;;41.77;36.28;100557.41;6182544;23;20391;-76
2023/04/22 02:36:44;;;;;;;9.37;4.00;;;;;;;41.83;36.69;100561.47;6182388;23;20153;-76
2023/04/22 02:39:10;;;;;;;11.00;4.53;;;;;;;41.98;35.94;100560.78;6182825;23;20459;-76
2023/04/22 02:41:36;;;;;;;13.77;3.83;;;;;;;42.05;36.48;100560.19;6182381;23;20400;-77
2023/04/22 02:44:02;;;;;;;16.70;4.57;;;;;;;41.96;36.24;100560.34;6183212;23;20691;-77
2023/04/22 02:46:28;;;;;;;16.17;5.30;;;;;;;41.83;35.89;100562.28;6183016;23;20180;-76
2023/04/22 02:48:54;;;;;;;10.07;4.17;;;;;;;42.02;35.99;100558.19;6183020;23;20204;-76
2023/04/22 02:51:20;;;;;;;11.83;5.27;;;;;;;42.03;35.99;100562.50;6182860;23;20240;-76
2023/04/22 02:53:46;;;;;;;9.90;3.80;;;;;;;41.88;35.88;100557.75;6184748;23;20133;-76
2023/04/22 02:56:12;;;;;;;9.07;2.20;;;;;;;41.73;35.52;100565.41;6182954;23;20388;-76
2023/04/22 02:58:38;;;;;;;13.30;4.23;;;;;;;41.92;35.68;100558.63;6183088;23;20403;-76
2023/04/22 03:01:04;;;;;;;11.03;4.10;;;;;;;42.13;35.80;100556.59;6182945;23;20380;-76
2023/04/22 03:03:30;;;;;;;13.40;4.70;;;;;;;42.10;36.33;100546.34;6182829;23;20443;-77
2023/04/22 03:05:56;;;;;;;14.53;4.70;;;;;;;41.89;36.13;100551.16;6182393;23;20428;-76
2023/04/22 03:08:22;;;;;;;9.13;3.93;;;;;;;41.93;35.01;100562.94;6182739;23;20432;-76
2023/04/22 03:10:48;;;;;;;13.67;5.20;;;;;;;41.88;36.36;100558.53;6182807;23;20383;-76
2023/04/22 03:13:14;;;;;;;20.67;4.37;;;;;;;41.74;37.22;100560.75;6182285;23;20475;-77
2023/04/22 03:15:40;;;;;;;10.60;4.17;;;;;;;41.95;36.74;100560.69;6182898;23;20419;-76
2023/04/22 03:18:07;;;;;;;16.83;5.67;;;;;;;41.79;36.92;100561.34;6182261;23;20483;-77
2023/04/22 03:20:34;;;;;;;15.63;6.63;;;;;;;41.66;37.35;100565.19;6182768;23;20853;-76
2023/04/22 03:23:00;;;;;;;19.17;4.63;;;;;;;41.61;37.48;100555.28;6182576;23;20446;-76
2023/04/22 03:25:26;;;;;;;15.03;4.87;;;;;;;41.67;37.22;100566.75;6182809;23;20423;-77
2023/04/22 03:27:52;;;;;;;17.20;3.87;;;;;;;41.76;36.99;100564.78;6181900;23;20436;-76
2023/04/22 03:30:18;;;;;;;13.57;4.33;;;;;;;41.65;37.29;100569.03;6182624;23;20391;-77
2023/04/22 03:32:44;;;;;;;17.00;4.87;;;;;;;41.86;36.77;100574.41;6182610;23;20391;-76
2023/04/22 03:35:10;;;;;;;9.23;3.67;;;;;;;41.95;36.41;100579.75;6182664;23;20380;-77
2023/04/22 03:37:36;;;;;;;10.83;4.17;;;;;;;41.78;36.08;100576.09;6181720;23;20442;-76
2023/04/22 03:40:04;;;;;;;13.47;3.87;;;;;;;41.77;36.67;100579.97;6182798;23;20748;-77
2023/04/22 03:42:30;;;;;;;11.93;4.97;;;;;;;41.92;36.57;100585.88;6182763;23;20388;-77
2023/04/22 03:44:56;;;;;;;15.00;4.97;;;;;;;42.00;36.51;100587.72;6182613;23;20384;-76
2023/04/22 03:47:22;;;;;;;11.20;3.87;;;;;;;41.99;36.35;100580.66;6182225;23;20436;-76
2023/04/22 03:49:48;;;;;;;11.00;3.43;;;;;;;42.00;36.11;100587.72;6184094;23;20388;-76
2023/04/22 03:52:14;;;;;;;18.83;5.30;;;;;;;42.06;36.18;100589.06;6184755;23;20392;-76
2023/04/22 03:54:40;;;;;;;11.13;3.93;;;;;;;42.18;36.01;100597.28;6184193;23;20383;-76
2023/04/22 03:57:06;;;;;;;12.43;6.10;;;;;;;42.15;36.33;100603.34;6184258;23;20381;-76
2023/04/22 03:59:32;;;;;;;14.33;5.00;;;;;;;41.87;36.37;100606.00;6184467;23;20909;-76
2023/04/22 04:01:58;;;;;;;19.50;4.53;;;;;;;41.86;36.61;100607.88;6184205;23;20157;-76
2023/04/22 04:04:24;;;;;;;12.30;3.80;;;;;;;41.98;36.34;100614.47;6184382;23;20207;-76
2023/04/22 04:06:50;;;;;;;15.63;4.63;;;;;;;41.97;36.68;100602.00;6184388;23;20489;-77
2023/04/22 04:09:16;;;;;;;12.03;3.80;;;;;;;41.86;37.03;100604.38;6184427;23;20384;-76
2023/04/22 04:11:42;;;;;;;17.40;3.97;;;;;;;41.96;37.09;100605.88;6184009;23;20380;-76
2023/04/22 04:14:08;;;;;;;16.40;4.30;;;;;;;41.94;36.50;100602.69;6184557;23;20402;-76
2023/04/22 04:16:34;;;;;;;14.03;4.90;;;;;;;41.76;36.65;100608.34;6184394;23;20199;-76
2023/04/22 04:19:00;;;;;;;12.10;3.27;;;;;;;41.60;36.17;100615.56;6184629;23;20376;-77
2023/04/22 04:21:26;;;;;;;11.17;4.00;;;;;;;41.79;36.09;100613.09;6184300;23;20414;-78
2023/04/22 04:23:52;;;;;;;11.43;3.83;;;;;;;41.77;35.67;100607.22;6184325;23;20399;-76
2023/04/22 04:26:19;;;;;;;10.33;3.30;;;;;;;41.47;36.62;100614.72;6184162;23;20431;-76
2023/04/22 04:28:46;;;;;;;18.57;6.07;;;;;;;41.50;36.64;100627.69;6184326;23;20621;-76
2023/04/22 04:31:12;;;;;;;10.83;2.90;;;;;;;41.66;36.59;100629.75;6184145;23;20783;-76
2023/04/22 04:33:38;;;;;;;12.83;4.57;;;;;;;41.53;36.28;100631.66;6184325;23;20844;-77
2023/04/22 04:36:04;;;;;;;12.03;3.53;;;;;;;41.61;36.12;100636.19;6184252;23;20408;-76
2023/04/22 04:38:31;;;;;;;7.63;2.50;;;;;;;41.32;36.82;100634.41;6184511;23;20373;-77
2023/04/22 04:40:57;;;;;;;9.10;3.93;;;;;;;41.41;36.76;100647.94;6184211;23;20891;-76
2023/04/22 04:43:24;;;;;;;11.57;4.20;;;;;;;41.52;36.27;100640.97;6184234;23;20485;-76
2023/04/22 04:45:53;;;;;;;11.83;3.90;;;;;;;41.58;35.75;100645.06;6184201;23;20388;-77
2023/04/22 04:48:19;;;;;;;12.37;4.20;;;;;;;41.70;35.77;100645.09;6184287;23;20471;-78
2023/04/22 04:50:45;;;;;;;11.77;4.77;;;;;;;41.75;36.31;100650.34;6183470;23;20403;-76
2023/04/22 04:53:12;;;;;;;10.90;4.47;;;;;;;41.58;36.16;100639.63;6184043;23;20415;-76
2023/04/22 04:55:38;;;;;;;13.00;3.50;;;;;;;41.75;36.29;100650.34;6184332;23;20439;-76
2023/04/22 04:58:04;;;;;;;11.63;3.43;;;;;;;41.61;35.92;100649.81;6185504;23;20411;-77
2023/04/22 05:00:30;;;;;;;14.40;4.03;;;;;;;41.64;35.89;100660.06;6183361;23;20865;-77
2023/04/22 05:02:56;;;;;;;12.27;4.90;;;;;;;41.60;36.04;100657.19;6184254;23;20872;-76
2023/04/22 05:05:22;;;;;;;12.03;4.33;;;;;;;41.78;35.94;100673.38;6183486;23;20534;-76
2023/04/22 05:07:48;;;;;;;10.73;4.07;;;;;;;41.70;36.21;100663.34;6183964;23;20187;-76
2023/04/22 05:10:14;;;;;;;8.63;3.20;;;;;;;41.82;36.40;100658.75;6183999;23;20230;-77
2023/04/22 05:12:40;;;;;;;11.23;3.00;;;;;;;41.67;36.51;100664.00;6183809;23;20395;-76
2023/04/22 05:15:06;;;;;;;13.23;3.93;;;;;;;41.81;35.78;100670.00;6183923;23;20384;-76
2023/04/22 05:17:32;;;;;;;13.50;4.73;;;;;;;41.80;35.79;100671.09;6183835;23;20393;-76
2023/04/22 05:19:58;;;;;;;12.33;4.80;;;;;;;41.84;35.40;100670.09;6183799;23;20380;-76
2023/04/22 05:22:24;;;;;;;13.37;3.10;;;;;;;41.77;35.29;100680.75;6183982;23;20384;-76
2023/04/22 05:24:50;;;;;;;14.97;4.23;;;;;;;41.77;35.93;100669.88;6183812;23;20561;-76
2023/04/22 05:27:17;;;;;;;20.67;3.80;;;;;;;41.59;35.65;100677.38;6183751;23;20424;-76
2023/04/22 05:29:43;;;;;;;11.93;3.87;;;;;;;41.81;36.36;100676.25;6183504;23;20581;-76
2023/04/22 05:32:09;;;;;;;16.17;3.10;;;;;;;41.82;35.71;100677.03;6185729;23;20380;-76
2023/04/22 05:34:35;;;;;;;15.83;4.50;;;;;;;41.77;35.74;100679.97;6183311;23;20416;-76
2023/04/22 05:37:04;;;;;;;10.53;4.13;;;;;;;41.78;35.50;100674.19;6183238;23;20468;-76
2023/04/22 05:39:30;;;;;;;11.60;3.87;;;;;;;41.71;35.14;100675.84;6183595;23;20424;-77
2023/04/22 05:41:56;;;;;;;15.87;3.97;;;;;;;41.72;35.55;100686.38;6183117;23;20388;-76
2023/04/22 05:44:22;;;;;;;12.77;4.30;;;;;;;41.72;35.59;100691.84;6183078;23;20384;-76
2023/04/22 05:46:48;;;;;;;18.57;6.50;;;;;;;41.65;35.79;100693.53;6183675;23;20447;-76
2023/04/22 05:49:14;;;;;;;18.50;4.77;;;;;;;41.60;35.56;100687.16;6183412;23;20180;-76
2023/04/22 05:51:41;;;;;;;14.30;4.17;;;;;;;41.75;35.62;100696.66;6181238;23;20184;-76
2023/04/22 05:54:07;;;;;;;15.10;5.07;;;;;;;41.53;35.96;100700.53;6183165;23;20805;-76
2023/04/22 05:56:33;;;;;;;14.17;5.03;;;;;;;41.76;36.09;100708.34;6183140;23;20423;-77
2023/04/22 05:58:59;;;;;;;19.43;5.50;;;;;;;41.83;35.74;100701.22;6183671;23;20183;-76
2023/04/22 06:01:25;;;;;;;20.00;5.10;;;;;;;41.96;35.99;100698.50;6181370;23;20380;-76
2023/04/22 06:03:51;;;;;;;10.80;3.57;;;;;;;41.86;35.51;100689.63;6182999;23;20200;-77
2023/04/22 06:06:17;;;;;;;14.50;6.10;;;;;;;41.88;35.69;100699.41;6183119;23;20168;-77
2023/04/22 06:08:43;;;;;;;15.37;5.93;;;;;;;41.79;35.41;100700.28;6183184;23;20511;-78
2023/04/22 06:11:09;;;;;;;20.80;5.63;;;;;;;41.75;35.75;100707.56;6181875;23;20416;-77
2023/04/22 06:13:35;;;;;;;17.17;4.40;;;;;;;41.72;35.69;100697.28;6182926;23;20443;-77
2023/04/22 06:16:03;;;;;;;12.10;4.80;;;;;;;41.69;35.26;100714.31;6182816;23;20388;-78
2023/04/22 06:18:31;;;;;;;10.73;3.67;;;;;;;41.65;35.58;100709.88;6183019;23;20492;-77
2023/04/22 06:20:57;;;;;;;14.27;3.40;;;;;;;41.72;35.98;100705.44;6183479;23;20861;-77
2023/04/22 06:23:23;;;;;;;19.53;3.93;;;;;;;41.66;36.13;100706.78;6182038;23;20415;-78
2023/04/22 06:25:49;;;;;;;13.20;4.27;;;;;;;41.56;35.93;100708.03;6181955;23;20381;-77
2023/04/22 06:28:15;;;;;;;11.27;4.67;;;;;;;41.51;36.25;100718.34;6182890;23;20193;-78
2023/04/22 06:30:40;;;;;;;11.20;4.10;;;;;;;41.80;35.27;100726.38;6184558;23;20459;-76
2023/04/22 06:33:06;;;;;;;21.57;5.37;;;;;;;41.77;35.31;100721.63;6183048;23;20865;-76
2023/04/22 06:35:32;;;;;;;15.70;6.20;;;;;;;41.68;35.63;100725.53;6183109;23;20387;-76
2023/04/22 06:37:58;;;;;;;17.40;4.57;;;;;;;41.62;36.13;100741.31;6183372;23;20156;-76
2023/04/22 06:40:24;;;;;;;13.20;5.47;;;;;;;41.64;36.03;100736.31;6182503;23;20387;-76
2023/04/22 06:42:50;;;;;;;13.13;5.60;;;;;;;41.78;35.56;100736.03;6184532;23;20763;-76
2023/04/22 06:45:16;;;;;;;14.60;4.87;;;;;;;41.55;35.71;100744.53;6184529;23;20372;-76
2023/04/22 06:47:42;;;;;;;10.50;3.03;;;;;;;41.69;36.01;100740.75;6181596;23;20438;-76
2023/04/22 06:50:09;;;;;;;19.83;4.17;;;;;;;41.63;35.90;100751.06;6182730;23;20383;-76
2023/04/22 06:52:36;;;;;;;12.33;3.90;;;;;;;41.79;35.75;100749.31;6182931;23;20530;-77
2023/04/22 06:55:02;;;;;;;13.10;4.57;;;;;;;41.89;35.30;100748.09;6181367;23;20859;-76
2023/04/22 06:57:29;;;;;;;9.80;3.90;;;;;;;41.78;35.75;100742.28;6183187;23;20384;-77
2023/04/22 06:59:55;;;;;;;8.33;3.20;;;;;;;41.85;35.97;100756.13;6182816;23;20440;-76
2023/04/22 07:02:21;;;;;;;15.33;4.53;;;;;;;41.75;36.14;100764.75;6182182;23;20821;-76
2023/04/22 07:04:47;;;;;;;13.03;4.30;;;;;;;42.00;35.25;100765.63;6183984;23;20434;-76
2023/04/22 07:07:13;;;;;;;15.60;4.53;;;;;;;41.96;35.13;100774.78;6182264;23;20451;-76
2023/04/22 07:09:39;;;;;;;11.70;6.13;;;;;;;41.92;35.65;100768.41;6182047;23;20447;-74
2023/04/22 07:12:05;;;;;;;13.60;5.10;;;;;;;41.77;35.96;100772.56;6181002;23;20384;-77
2023/04/22 07:14:32;;;;;;;14.27;6.37;;;;;;;42.04;35.63;100771.16;6179636;23;20391;-77
2023/04/22 07:16:59;;;;;;;12.50;5.57;;;;;;;42.21;35.16;100775.69;6182575;23;20404;-76
2023/04/22 07:19:25;;;;;;;10.20;4.17;;;;;;;42.24;35.00;100781.25;6181605;23;20464;-78
2023/04/22 07:21:51;;;;;;;14.90;4.63;;;;;;;42.04;35.91;100788.31;6180903;23;20391;-76
2023/04/22 07:24:17;;;;;;;11.23;4.20;;;;;;;42.11;35.25;100790.50;6182652;23;20476;-77
2023/04/22 07:26:43;;;;;;;16.47;3.97;;;;;;;42.16;35.16;100784.84;6182725;23;20423;-77
2023/04/22 07:29:11;;;;;;;22.20;5.00;;;;;;;42.20;35.25;100795.91;6182951;23;20411;-77
2023/04/22 07:31:37;;;;;;;13.23;3.47;;;;;;;41.90;35.55;100806.09;6185173;23;20820;-79
2023/04/22 07:34:03;;;;;;;16.83;4.43;;;;;;;42.18;35.47;100811.81;6182689;23;20419;-79
2023/04/22 07:36:31;;;;;;;14.43;4.10;;;;;;;42.04;35.96;100814.78;6183128;23;20376;-76
2023/04/22 07:38:57;;;;;;;18.57;5.97;;;;;;;42.20;35.25;100814.97;6182892;23;20380;-79
2023/04/22 07:41:23;;;;;;;11.33;5.00;;;;;;;42.30;35.21;100815.34;6183179;23;20380;-80
2023/04/22 07:43:49;;;;;;;20.93;6.93;;;;;;;42.17;36.31;100823.81;6183003;23;20407;-79
2023/04/22 07:46:15;;;;;;;15.83;4.20;;;;;;;42.33;35.43;100825.56;6182659;23;20387;-79
2023/04/22 07:48:42;;;;;;;19.33;5.97;;;;;;;42.22;35.37;100824.41;6184855;23;20408;-79
2023/04/22 07:51:08;;;;;;;15.67;7.07;;;;;;;42.20;35.67;100829.41;6182417;23;20184;-79
2023/04/22 07:53:34;;;;;;;15.50;6.93;;;;;;;42.21;35.74;100820.09;6181820;23;20389;-79
2023/04/22 07:56:01;;;;;;;10.53;4.97;;;;;;;42.28;35.39;100822.25;6182932;23;20380;-79
2023/04/22 07:58:27;;;;;;;17.63;7.53;;;;;;;42.25;35.26;100820.22;6182728;23;20491;-79
2023/04/22 08:00:52;;;;;;;12.87;4.50;;;;;;;42.21;34.97;100830.97;6182942;23;20503;-79
2023/04/22 08:03:18;;;;;;;11.77;5.17;;;;;;;42.23;35.04;100828.72;6182340;23;20666;-78
2023/04/22 08:05:44;;;;;;;10.47;4.50;;;;;;;42.19;35.30;100816.91;6182096;23;20411;-79
2023/04/22 08:08:10;;;;;;;11.23;4.10;;;;;;;42.36;34.87;100815.94;6182851;23;20634;-78
2023/04/22 08:10:36;;;;;;;18.27;5.70;;;;;;;42.22;35.32;100818.16;6182596;23;20447;-79
2023/04/22 08:13:02;;;;;;;11.13;5.40;;;;;;;42.35;35.26;100834.19;6182981;23;20176;-79
2023/04/22 08:15:28;;;;;;;13.43;5.53;;;;;;;42.17;35.81;100830.06;6182722;23;20409;-79
2023/04/22 08:17:54;;;;;;;16.23;3.97;;;;;;;42.35;35.59;100830.66;6183353;23;20404;-79
2023/04/22 08:20:20;;;;;;;13.63;5.43;;;;;;;42.29;35.87;100829.28;6182855;23;20880;-79
2023/04/22 08:22:47;;;;;;;13.13;4.93;;;;;;;42.47;35.31;100827.97;6179693;23;20387;-78
2023/04/22 08:25:13;;;;;;;19.90;5.27;;;;;;;42.43;35.25;100829.00;6182615;23;20862;-78
2023/04/22 08:27:39;;;;;;;15.23;5.20;;;;;;;42.22;36.16;100831.78;6182533;23;20436;-78
2023/04/22 08:30:06;;;;;;;12.60;5.10;;;;;;;42.35;36.02;100836.91;6183896;23;20360;-79
2023/04/22 08:32:32;;;;;;;14.77;4.67;;;;;;;42.18;35.78;100825.44;6182881;23;20988;-78
2023/04/22 08:34:58;;;;;;;12.30;5.20;;;;;;;42.26;35.66;100833.50;6185908;23;20729;-79
2023/04/22 08:37:25;;;;;;;10.87;4.10;;;;;;;42.37;35.33;100818.31;6184604;23;20499;-78
2023/04/22 08:39:51;;;;;;;11.33;3.90;;;;;;;42.30;35.49;100828.19;6184714;23;20419;-78
2023/04/22 08:42:20;;;;;;;21.07;6.00;;;;;;;42.48;35.09;100818.66;6184557;23;20780;-79
2023/04/22 08:44:47;;;;;;;19.83;4.50;;;;;;;42.38;35.53;100814.44;6184669;23;20420;-78
2023/04/22 08:47:15;;;;;;;19.33;6.57;;;;;;;42.28;35.92;100820.31;6183886;23;21030;-78
2023/04/22 08:49:42;;;;;;;14.23;4.70;;;;;;;42.36;35.78;100821.38;6184634;23;20387;-78
2023/04/22 08:52:10;;;;;;;10.80;4.43;;;;;;;42.15;35.62;100815.94;6184287;23;20383;-79
2023/04/22 08:54:36;;;;;;;13.67;5.40;;;;;;;42.31;35.96;100816.13;6184983;23;20737;-78
2023/04/22 08:57:03;;;;;;;16.47;4.93;;;;;;;42.46;35.68;100817.41;6183854;23;20865;-78
2023/04/22 08:59:30;;;;;;;12.53;4.73;;;;;;;42.47;35.37;100810.81;6183526;23;20380;-78
2023/04/22 09:01:57;;;;;;;11.33;4.57;;;;;;;42.29;35.25;100802.81;6184475;23;20857;-78
2023/04/22 09:04:23;;;;;;;12.50;4.47;;;;;;;42.43;35.22;100809.91;6182653;23;20443;-78
2023/04/22 09:06:49;;;;;;;19.63;4.80;;;;;;;42.15;36.00;100821.41;6183938;23;20943;-78
2023/04/22 09:09:16;;;;;;;14.40;4.10;;;;;;;42.19;36.13;100814.19;6184161;23;20384;-78
2023/04/22 09:11:42;;;;;;;14.00;4.43;;;;;;;42.35;36.35;100817.81;6182604;23;20236;-78
2023/04/22 09:14:08;;;;;;;18.17;4.53;;;;;;;42.69;35.81;100801.44;6183876;23;20401;-79
2023/04/22 09:16:41;;;;;;;16.23;4.07;;;;;;;42.64;36.22;100813.34;6184129;23;20392;-79
2023/04/22 09:19:11;;;;;;;13.17;5.30;;;;;;;42.63;35.57;100814.50;6184376;23;20725;-78
2023/04/22 09:21:38;;;;;;;15.60;5.37;;;;;;;42.45;35.06;100810.34;6184182;23;20380;-78
2023/04/22 09:24:07;;;;;;;17.70;4.93;;;;;;;42.65;34.92;100813.00;6184011;23;20419;-78
2023/04/22 09:26:33;;;;;;;14.10;4.30;;;;;;;42.68;34.89;100816.22;6184045;23;20384;-78
2023/04/22 09:28:59;;;;;;;12.93;4.30;;;;;;;42.60;34.61;100806.97;6184076;23;20491;-78
2023/04/22 09:31:28;;;;;;;12.70;3.80;;;;;;;42.79;34.99;100801.78;6184027;23;20386;-78
2023/04/22 09:33:57;;;;;;;12.53;4.13;;;;;;;42.94;34.88;100794.81;6184180;23;20428;-78
2023/04/22 09:36:27;;;;;;;14.23;5.57;;;;;;;42.48;35.73;100793.31;6183884;23;20817;-78
2023/04/22 09:38:59;;;;;;;13.40;4.97;;;;;;;42.83;35.13;100786.28;6184412;23;20384;-78
2023/04/22 09:41:29;;;;;;;21.23;7.00;;;;;;;42.73;35.04;100788.72;6184068;23;20377;-78
2023/04/22 09:43:56;;;;;;;13.53;5.00;;;;;;;42.85;35.37;100784.03;6184093;23;20440;-78
2023/04/22 09:46:24;;;;;;;18.37;4.80;;;;;;;43.06;34.92;100777.66;6183382;23;20404;-78
2023/04/22 09:48:52;;;;;;;10.03;4.97;;;;;;;43.04;35.14;100780.75;6184297;23;20424;-78
2023/04/22 09:51:19;;;;;;;13.17;5.47;;;;;;;43.16;35.11;100775.25;6183413;23;20439;-77
2023/04/22 09:53:56;;;;;;;14.03;3.47;;;;;;;42.90;35.00;100778.31;6184011;23;20386;-78
2023/04/22 09:56:47;;;;;;;17.53;5.43;;;;;;;43.08;35.13;100776.16;6183653;23;20441;-78
2023/04/22 09:59:22;;;;;;;14.67;4.93;;;;;;;43.12;34.44;100771.63;6183752;23;20368;-78
2023/04/22 10:01:50;;;;;;;19.63;4.57;;;;;;;43.06;34.60;100778.47;6183978;23;20418;-78
2023/04/22 10:04:16;;;;;;;13.33;4.60;;;;;;;43.18;34.48;100785.81;6184921;23;20431;-78
2023/04/22 10:06:42;;;;;;;12.20;4.90;;;;;;;43.07;34.43;100773.78;6183728;23;20384;-78
2023/04/22 10:09:08;;;;;;;18.97;5.60;;;;;;;43.22;34.36;100778.56;6184388;23;20395;-78
2023/04/22 10:11:37;;;;;;;17.87;4.13;;;;;;;42.98;34.27;100778.56;6183465;23;20467;-78
2023/04/22 10:14:04;;;;;;;16.23;4.50;;;;;;;43.16;34.65;100766.28;6182523;23;20380;-78
2023/04/22 10:16:32;;;;;;;17.60;6.10;;;;;;;43.29;34.76;100769.78;6183718;23;20745;-78
2023/04/22 10:19:02;;;;;;;11.40;4.00;;;;;;;43.23;34.54;100766.47;6183418;23;20391;-78
2023/04/22 10:21:30;;;;;;;9.93;3.70;;;;;;;43.29;34.35;100770.56;6183310;23;20384;-78
2023/04/22 10:23:58;;;;;;;14.40;4.37;;;;;;;43.20;34.69;100767.16;6181053;23;20399;-78
2023/04/22 10:26:55;;;;;;;12.03;3.80;;;;;;;43.19;34.44;100763.63;6183479;23;20499;-78
2023/04/22 10:29:21;;;;;;;13.60;4.30;;;;;;;43.38;34.04;100768.50;6185515;23;20406;-78
2023/04/22 10:32:02;;;;;;;20.83;3.80;;;;;;;43.19;34.13;100765.56;6183157;23;20424;-78
2023/04/22 10:34:31;;;;;;;19.73;5.10;;;;;;;43.22;34.62;100764.91;6181481;23;20389;-79
2023/04/22 10:37:06;;;;;;;11.23;4.00;;;;;;;42.79;34.84;100769.03;6183485;23;20396;-79
2023/04/22 10:39:32;;;;;;;14.23;6.13;;;;;;;43.04;34.68;100766.31;6183776;23;20419;-78
2023/04/22 10:42:01;;;;;;;12.57;4.33;;;;;;;43.13;35.03;100773.22;6183504;23;20419;-78
2023/04/22 10:44:29;;;;;;;19.50;4.83;;;;;;;43.22;34.95;100759.44;6183447;23;20419;-78
2023/04/22 10:46:57;;;;;;;13.97;3.83;;;;;;;43.36;34.36;100761.78;6183389;23;20519;-79
2023/04/22 10:49:25;;;;;;;15.30;5.10;;;;;;;43.36;34.33;100751.66;6182853;23;20388;-79
2023/04/22 10:54:27;;;;;;;14.77;4.43;;;;;;;43.37;34.58;100744.25;6184201;22;20452;-81
2023/04/22 10:57:04;;;;;;;20.93;5.00;;;;;;;43.34;34.70;100744.94;6183241;23;20384;-81
2023/04/22 10:59:32;;;;;;;16.33;7.23;;;;;;;43.38;35.08;100735.72;6158466;23;20425;-83
2023/04/22 11:02:05;;;;;;;15.20;5.30;;;;;;;43.38;34.29;100730.28;6183261;23;20419;-83
2023/04/22 11:04:31;;;;;;;11.37;5.47;;;;;;;43.35;34.83;100735.63;6183179;23;20471;-84
2023/04/22 11:07:29;;;;;;;16.53;5.43;;;;;;;43.15;34.98;100732.69;6183243;23;20423;-83
2023/04/22 11:10:05;;;;;;;17.23;5.17;;;;;;;43.17;35.00;100722.25;6183326;23;20418;-81
2023/04/22 11:12:34;;;;;;;13.03;3.80;;;;;;;43.26;34.73;100721.31;6183266;23;20395;-82
2023/04/22 11:15:15;;;;;;;10.63;4.10;;;;;;;43.43;34.35;100716.38;6183268;23;20391;-82
2023/04/22 11:17:46;;;;;;;14.50;4.90;;;;;;;43.28;34.95;100713.56;6183106;23;20387;-82